sensor_id;sensor_type;location;lat;lon;timestamp;P1;durP1;ratioP1;P2;durP2;ratioP2
22289;SDS011;11313;50.116;8.424;2023-04-03T00:00:58;656.30;;;609.50;;
22289;SDS011;11313;50.116;8.424;2023-04-03T00:03:24;678.50;;;630.05;;
22289;SDS011;11313;50.116;8.424;2023-04-03T00:05:50;714.08;;;661.70;;
22289;SDS011;11313;50.116;8.424;2023-04-03T00:08:15;737.65;;;683.08;;
22289;SDS011;11313;50.116;8.424;2023-04-03T00:10:41;677.40;;;629.72;;
22289;SDS011;11313;50.116;8.424;2023-04-03T00:13:07;725.17;;;672.25;;
22289;SDS011;11313;50.116;8.424;2023-04-03T00:15:33;719.00;;;667.00;;
22289;SDS011;11313;50.116;8.424;2023-04-03T00:18:00;693.53;;;643.30;;
22289;SDS011;11313;50.116;8.424;2023-04-03T00:20:26;726.05;;;673.33;;
22289;SDS011;11313;50.116;8.424;2023-04-03T00:22:52;690.60;;;642.08;;
22289;SDS011;11313;50.116;8.424;2023-04-03T00:25:18;693.60;;;644.13;;
22289;SDS011;11313;50.116;8.424;2023-04-03T00:27:44;683.58;;;635.75;;
22289;SDS011;11313;50.116;8.424;2023-04-03T00:30:10;632.08;;;588.60;;
22289;SDS011;11313;50.116;8.424;2023-04-03T00:32:38;682.03;;;634.63;;
22289;SDS011;11313;50.116;8.424;2023-04-03T00:35:03;678.05;;;631.38;;
22289;SDS011;11313;50.116;8.424;2023-04-03T00:37:30;665.25;;;620.13;;
22289;SDS011;11313;50.116;8.424;2023-04-03T00:39:55;665.42;;;619.25;;
22289;SDS011;11313;50.116;8.424;2023-04-03T00:42:21;673.67;;;626.38;;
22289;SDS011;11313;50.116;8.424;2023-04-03T00:47:13;694.20;;;643.55;;
22289;SDS011;11313;50.116;8.424;2023-04-03T00:49:41;692.30;;;642.13;;
22289;SDS011;11313;50.116;8.424;2023-04-03T00:52:08;687.70;;;639.28;;
22289;SDS011;11313;50.116;8.424;2023-04-03T00:54:37;663.40;;;617.42;;
22289;SDS011;11313;50.116;8.424;2023-04-03T00:57:05;683.53;;;636.00;;
22289;SDS011;11313;50.116;8.424;2023-04-03T00:59:33;643.33;;;599.47;;
22289;SDS011;11313;50.116;8.424;2023-04-03T01:02:02;655.42;;;610.08;;
22289;SDS011;11313;50.116;8.424;2023-04-03T01:04:30;647.17;;;603.47;;
22289;SDS011;11313;50.116;8.424;2023-04-03T01:06:57;672.33;;;624.58;;
22289;SDS011;11313;50.116;8.424;2023-04-03T01:09:33;693.17;;;643.78;;
22289;SDS011;11313;50.116;8.424;2023-04-03T01:14:45;639.80;;;596.40;;
22289;SDS011;11313;50.116;8.424;2023-04-03T01:19:54;675.42;;;627.38;;
22289;SDS011;11313;50.116;8.424;2023-04-03T01:23:06;632.00;;;588.53;;
22289;SDS011;11313;50.116;8.424;2023-04-03T01:25:33;661.17;;;615.17;;
22289;SDS011;11313;50.116;8.424;2023-04-03T01:28:00;608.40;;;568.38;;
22289;SDS011;11313;50.116;8.424;2023-04-03T01:30:28;676.60;;;630.47;;
22289;SDS011;11313;50.116;8.424;2023-04-03T01:32:56;659.28;;;614.00;;
22289;SDS011;11313;50.116;8.424;2023-04-03T01:35:22;672.05;;;625.05;;
22289;SDS011;11313;50.116;8.424;2023-04-03T01:37:48;610.40;;;569.25;;
22289;SDS011;11313;50.116;8.424;2023-04-03T01:40:13;618.25;;;576.35;;
22289;SDS011;11313;50.116;8.424;2023-04-03T01:42:39;664.95;;;619.05;;
22289;SDS011;11313;50.116;8.424;2023-04-03T01:45:04;611.50;;;570.88;;
22289;SDS011;11313;50.116;8.424;2023-04-03T01:47:30;602.85;;;562.40;;
22289;SDS011;11313;50.116;8.424;2023-04-03T01:49:56;664.60;;;619.35;;
22289;SDS011;11313;50.116;8.424;2023-04-03T01:52:21;676.33;;;628.60;;
22289;SDS011;11313;50.116;8.424;2023-04-03T01:54:47;663.00;;;616.72;;
22289;SDS011;11313;50.116;8.424;2023-04-03T01:57:12;659.38;;;613.20;;
22289;SDS011;11313;50.116;8.424;2023-04-03T01:59:40;674.10;;;626.08;;
22289;SDS011;11313;50.116;8.424;2023-04-03T02:02:05;692.90;;;642.88;;
22289;SDS011;11313;50.116;8.424;2023-04-03T02:04:31;640.67;;;597.67;;
22289;SDS011;11313;50.116;8.424;2023-04-03T02:06:56;615.50;;;574.30;;
22289;SDS011;11313;50.116;8.424;2023-04-03T02:09:22;659.13;;;613.13;;
22289;SDS011;11313;50.116;8.424;2023-04-03T02:11:47;669.88;;;622.00;;
22289;SDS011;11313;50.116;8.424;2023-04-03T02:14:13;628.88;;;586.40;;
22289;SDS011;11313;50.116;8.424;2023-04-03T02:16:38;590.42;;;550.95;;
22289;SDS011;11313;50.116;8.424;2023-04-03T02:19:04;679.83;;;632.83;;
22289;SDS011;11313;50.116;8.424;2023-04-03T02:21:29;628.28;;;585.53;;
22289;SDS011;11313;50.116;8.424;2023-04-03T02:23:55;603.50;;;563.88;;
22289;SDS011;11313;50.116;8.424;2023-04-03T02:26:21;603.13;;;563.38;;
22289;SDS011;11313;50.116;8.424;2023-04-03T02:28:46;621.90;;;579.67;;
22289;SDS011;11313;50.116;8.424;2023-04-03T02:31:12;643.85;;;599.90;;
22289;SDS011;11313;50.116;8.424;2023-04-03T02:33:38;624.05;;;581.60;;
22289;SDS011;11313;50.116;8.424;2023-04-03T02:36:04;586.25;;;547.20;;
22289;SDS011;11313;50.116;8.424;2023-04-03T02:38:31;650.63;;;605.90;;
22289;SDS011;11313;50.116;8.424;2023-04-03T02:41:03;647.53;;;604.50;;
22289;SDS011;11313;50.116;8.424;2023-04-03T02:43:30;656.45;;;611.38;;
22289;SDS011;11313;50.116;8.424;2023-04-03T02:45:56;613.60;;;572.25;;
22289;SDS011;11313;50.116;8.424;2023-04-03T02:48:21;620.88;;;579.47;;
22289;SDS011;11313;50.116;8.424;2023-04-03T02:50:47;648.50;;;603.83;;
22289;SDS011;11313;50.116;8.424;2023-04-03T02:53:13;646.00;;;601.50;;
22289;SDS011;11313;50.116;8.424;2023-04-03T02:55:38;665.83;;;619.33;;
22289;SDS011;11313;50.116;8.424;2023-04-03T02:58:04;666.08;;;617.60;;
22289;SDS011;11313;50.116;8.424;2023-04-03T03:00:29;646.63;;;602.88;;
22289;SDS011;11313;50.116;8.424;2023-04-03T03:02:55;675.25;;;628.40;;
22289;SDS011;11313;50.116;8.424;2023-04-03T03:05:21;704.83;;;655.13;;
22289;SDS011;11313;50.116;8.424;2023-04-03T03:07:46;650.50;;;605.72;;
22289;SDS011;11313;50.116;8.424;2023-04-03T03:10:12;627.05;;;585.63;;
22289;SDS011;11313;50.116;8.424;2023-04-03T03:12:38;637.38;;;593.58;;
22289;SDS011;11313;50.116;8.424;2023-04-03T03:15:04;595.25;;;556.10;;
22289;SDS011;11313;50.116;8.424;2023-04-03T03:17:29;650.53;;;605.08;;
22289;SDS011;11313;50.116;8.424;2023-04-03T03:19:55;617.42;;;575.70;;
22289;SDS011;11313;50.116;8.424;2023-04-03T03:22:20;602.13;;;562.60;;
22289;SDS011;11313;50.116;8.424;2023-04-03T03:24:47;621.95;;;579.63;;
22289;SDS011;11313;50.116;8.424;2023-04-03T03:27:12;636.45;;;592.13;;
22289;SDS011;11313;50.116;8.424;2023-04-03T03:29:38;622.83;;;580.97;;
22289;SDS011;11313;50.116;8.424;2023-04-03T03:32:03;643.38;;;600.08;;
22289;SDS011;11313;50.116;8.424;2023-04-03T03:34:29;718.00;;;665.50;;
22289;SDS011;11313;50.116;8.424;2023-04-03T03:36:54;657.00;;;612.10;;
22289;SDS011;11313;50.116;8.424;2023-04-03T03:39:20;626.05;;;583.25;;
22289;SDS011;11313;50.116;8.424;2023-04-03T03:41:46;671.95;;;624.22;;
22289;SDS011;11313;50.116;8.424;2023-04-03T03:44:12;707.63;;;655.85;;
22289;SDS011;11313;50.116;8.424;2023-04-03T03:46:37;621.15;;;579.20;;
22289;SDS011;11313;50.116;8.424;2023-04-03T03:49:03;712.35;;;661.00;;
22289;SDS011;11313;50.116;8.424;2023-04-03T03:51:28;703.78;;;652.50;;
22289;SDS011;11313;50.116;8.424;2023-04-03T03:53:54;696.30;;;646.85;;
22289;SDS011;11313;50.116;8.424;2023-04-03T03:56:19;675.53;;;626.92;;
22289;SDS011;11313;50.116;8.424;2023-04-03T03:58:45;661.05;;;615.85;;
22289;SDS011;11313;50.116;8.424;2023-04-03T04:01:11;648.17;;;604.13;;
22289;SDS011;11313;50.116;8.424;2023-04-03T04:03:36;656.17;;;610.58;;
22289;SDS011;11313;50.116;8.424;2023-04-03T04:06:02;704.05;;;653.90;;
22289;SDS011;11313;50.116;8.424;2023-04-03T04:08:28;666.20;;;619.33;;
22289;SDS011;11313;50.116;8.424;2023-04-03T04:10:53;710.22;;;659.65;;
22289;SDS011;11313;50.116;8.424;2023-04-03T04:13:19;714.95;;;663.63;;
22289;SDS011;11313;50.116;8.424;2023-04-03T04:15:44;651.15;;;607.53;;
22289;SDS011;11313;50.116;8.424;2023-04-03T04:18:10;699.47;;;649.95;;
22289;SDS011;11313;50.116;8.424;2023-04-03T04:20:35;654.90;;;608.90;;
22289;SDS011;11313;50.116;8.424;2023-04-03T04:23:01;654.83;;;608.95;;
22289;SDS011;11313;50.116;8.424;2023-04-03T04:25:26;636.78;;;592.20;;
22289;SDS011;11313;50.116;8.424;2023-04-03T04:27:52;668.08;;;620.13;;
22289;SDS011;11313;50.116;8.424;2023-04-03T04:30:17;663.55;;;616.55;;
22289;SDS011;11313;50.116;8.424;2023-04-03T04:32:43;616.40;;;574.22;;
22289;SDS011;11313;50.116;8.424;2023-04-03T04:35:08;605.05;;;564.38;;
22289;SDS011;11313;50.116;8.424;2023-04-03T04:37:34;622.65;;;580.55;;
22289;SDS011;11313;50.116;8.424;2023-04-03T04:40:00;643.75;;;599.38;;
22289;SDS011;11313;50.116;8.424;2023-04-03T04:42:25;613.42;;;571.97;;
22289;SDS011;11313;50.116;8.424;2023-04-03T04:44:51;613.50;;;571.17;;
22289;SDS011;11313;50.116;8.424;2023-04-03T04:47:16;622.90;;;580.38;;
22289;SDS011;11313;50.116;8.424;2023-04-03T04:49:42;600.85;;;561.05;;
22289;SDS011;11313;50.116;8.424;2023-04-03T04:52:07;653.65;;;608.60;;
22289;SDS011;11313;50.116;8.424;2023-04-03T04:54:33;626.30;;;584.45;;
22289;SDS011;11313;50.116;8.424;2023-04-03T04:56:58;595.78;;;556.47;;
22289;SDS011;11313;50.116;8.424;2023-04-03T04:59:24;692.25;;;642.15;;
22289;SDS011;11313;50.116;8.424;2023-04-03T05:01:49;670.83;;;624.22;;
22289;SDS011;11313;50.116;8.424;2023-04-03T05:04:15;657.28;;;611.97;;
22289;SDS011;11313;50.116;8.424;2023-04-03T05:06:41;695.63;;;645.85;;
22289;SDS011;11313;50.116;8.424;2023-04-03T05:09:06;622.55;;;580.42;;
22289;SDS011;11313;50.116;8.424;2023-04-03T05:11:32;620.97;;;579.00;;
22289;SDS011;11313;50.116;8.424;2023-04-03T05:13:57;631.88;;;588.20;;
22289;SDS011;11313;50.116;8.424;2023-04-03T05:16:23;659.10;;;613.53;;
22289;SDS011;11313;50.116;8.424;2023-04-03T05:18:48;635.85;;;592.92;;
22289;SDS011;11313;50.116;8.424;2023-04-03T05:21:14;608.13;;;567.65;;
22289;SDS011;11313;50.116;8.424;2023-04-03T05:23:40;630.00;;;587.15;;
22289;SDS011;11313;50.116;8.424;2023-04-03T05:26:05;627.30;;;586.10;;
22289;SDS011;11313;50.116;8.424;2023-04-03T05:28:31;597.72;;;557.35;;
22289;SDS011;11313;50.116;8.424;2023-04-03T05:30:57;619.25;;;577.88;;
22289;SDS011;11313;50.116;8.424;2023-04-03T05:33:23;605.95;;;566.05;;
22289;SDS011;11313;50.116;8.424;2023-04-03T05:35:51;620.65;;;578.90;;
22289;SDS011;11313;50.116;8.424;2023-04-03T05:38:16;581.08;;;542.47;;
22289;SDS011;11313;50.116;8.424;2023-04-03T05:40:42;623.05;;;582.08;;
22289;SDS011;11313;50.116;8.424;2023-04-03T05:43:07;630.88;;;588.75;;
22289;SDS011;11313;50.116;8.424;2023-04-03T05:45:33;643.95;;;600.17;;
22289;SDS011;11313;50.116;8.424;2023-04-03T05:47:58;600.67;;;559.70;;
22289;SDS011;11313;50.116;8.424;2023-04-03T05:50:24;626.83;;;584.47;;
22289;SDS011;11313;50.116;8.424;2023-04-03T05:52:50;587.67;;;549.50;;
22289;SDS011;11313;50.116;8.424;2023-04-03T05:55:19;552.50;;;516.95;;
22289;SDS011;11313;50.116;8.424;2023-04-03T05:57:44;555.72;;;520.72;;
22289;SDS011;11313;50.116;8.424;2023-04-03T06:00:12;576.20;;;538.72;;
22289;SDS011;11313;50.116;8.424;2023-04-03T06:02:40;584.17;;;546.38;;
22289;SDS011;11313;50.116;8.424;2023-04-03T06:05:06;551.63;;;514.28;;
22289;SDS011;11313;50.116;8.424;2023-04-03T06:07:33;569.25;;;532.38;;
22289;SDS011;11313;50.116;8.424;2023-04-03T06:09:59;590.67;;;550.17;;
22289;SDS011;11313;50.116;8.424;2023-04-03T06:12:25;610.70;;;568.53;;
22289;SDS011;11313;50.116;8.424;2023-04-03T06:14:50;596.42;;;555.03;;
22289;SDS011;11313;50.116;8.424;2023-04-03T06:17:16;582.53;;;544.00;;
22289;SDS011;11313;50.116;8.424;2023-04-03T06:19:43;580.65;;;541.55;;
22289;SDS011;11313;50.116;8.424;2023-04-03T06:22:09;599.22;;;558.22;;
22289;SDS011;11313;50.116;8.424;2023-04-03T06:24:36;604.45;;;563.35;;
22289;SDS011;11313;50.116;8.424;2023-04-03T06:27:02;603.00;;;561.85;;
22289;SDS011;11313;50.116;8.424;2023-04-03T06:29:27;588.03;;;548.75;;
22289;SDS011;11313;50.116;8.424;2023-04-03T06:31:53;569.90;;;531.72;;
22289;SDS011;11313;50.116;8.424;2023-04-03T06:34:18;535.00;;;499.90;;
22289;SDS011;11313;50.116;8.424;2023-04-03T06:36:45;552.60;;;516.28;;
22289;SDS011;11313;50.116;8.424;2023-04-03T06:39:20;585.25;;;545.35;;
22289;SDS011;11313;50.116;8.424;2023-04-03T06:41:47;634.88;;;591.88;;
22289;SDS011;11313;50.116;8.424;2023-04-03T06:44:13;565.35;;;528.20;;
22289;SDS011;11313;50.116;8.424;2023-04-03T06:46:40;593.83;;;554.40;;
22289;SDS011;11313;50.116;8.424;2023-04-03T06:49:07;554.10;;;517.63;;
22289;SDS011;11313;50.116;8.424;2023-04-03T06:51:32;538.75;;;503.33;;
22289;SDS011;11313;50.116;8.424;2023-04-03T06:53:59;524.35;;;489.98;;
22289;SDS011;11313;50.116;8.424;2023-04-03T06:56:25;550.20;;;514.65;;
22289;SDS011;11313;50.116;8.424;2023-04-03T06:58:52;560.67;;;523.90;;
22289;SDS011;11313;50.116;8.424;2023-04-03T07:01:19;539.65;;;504.50;;
22289;SDS011;11313;50.116;8.424;2023-04-03T07:03:46;560.78;;;523.55;;
22289;SDS011;11313;50.116;8.424;2023-04-03T07:06:13;547.50;;;510.92;;
22289;SDS011;11313;50.116;8.424;2023-04-03T07:08:40;535.70;;;501.45;;
22289;SDS011;11313;50.116;8.424;2023-04-03T07:11:07;643.70;;;599.22;;
22289;SDS011;11313;50.116;8.424;2023-04-03T07:13:33;586.47;;;546.88;;
22289;SDS011;11313;50.116;8.424;2023-04-03T07:16:00;602.67;;;562.35;;
22289;SDS011;11313;50.116;8.424;2023-04-03T07:18:26;619.35;;;577.20;;
22289;SDS011;11313;50.116;8.424;2023-04-03T07:20:52;586.72;;;547.13;;
22289;SDS011;11313;50.116;8.424;2023-04-03T07:23:18;609.08;;;567.47;;
22289;SDS011;11313;50.116;8.424;2023-04-03T07:25:44;587.10;;;546.53;;
22289;SDS011;11313;50.116;8.424;2023-04-03T07:28:11;603.08;;;561.15;;
22289;SDS011;11313;50.116;8.424;2023-04-03T07:30:46;540.67;;;505.98;;
22289;SDS011;11313;50.116;8.424;2023-04-03T07:33:14;531.90;;;497.38;;
22289;SDS011;11313;50.116;8.424;2023-04-03T07:35:41;509.80;;;476.77;;
22289;SDS011;11313;50.116;8.424;2023-04-03T07:38:07;484.38;;;453.48;;
22289;SDS011;11313;50.116;8.424;2023-04-03T07:40:33;502.65;;;470.77;;
22289;SDS011;11313;50.116;8.424;2023-04-03T07:42:58;544.60;;;509.13;;
22289;SDS011;11313;50.116;8.424;2023-04-03T07:45:24;481.35;;;450.73;;
22289;SDS011;11313;50.116;8.424;2023-04-03T07:47:50;477.75;;;447.05;;
22289;SDS011;11313;50.116;8.424;2023-04-03T07:50:16;547.08;;;511.23;;
22289;SDS011;11313;50.116;8.424;2023-04-03T07:52:42;540.55;;;505.75;;
22289;SDS011;11313;50.116;8.424;2023-04-03T07:55:08;492.75;;;461.05;;
22289;SDS011;11313;50.116;8.424;2023-04-03T07:57:33;457.67;;;428.50;;
22289;SDS011;11313;50.116;8.424;2023-04-03T08:00:00;488.50;;;456.90;;
22289;SDS011;11313;50.116;8.424;2023-04-03T08:02:25;522.72;;;489.40;;
22289;SDS011;11313;50.116;8.424;2023-04-03T08:04:51;501.42;;;468.30;;
22289;SDS011;11313;50.116;8.424;2023-04-03T08:07:17;521.65;;;487.63;;
22289;SDS011;11313;50.116;8.424;2023-04-03T08:09:42;522.63;;;488.80;;
22289;SDS011;11313;50.116;8.424;2023-04-03T08:12:09;522.63;;;489.05;;
22289;SDS011;11313;50.116;8.424;2023-04-03T08:14:36;581.03;;;540.47;;
22289;SDS011;11313;50.116;8.424;2023-04-03T08:17:02;643.42;;;597.00;;
22289;SDS011;11313;50.116;8.424;2023-04-03T08:19:29;672.92;;;625.15;;
22289;SDS011;11313;50.116;8.424;2023-04-03T08:21:55;503.73;;;470.73;;
22289;SDS011;11313;50.116;8.424;2023-04-03T08:24:23;587.72;;;546.78;;
22289;SDS011;11313;50.116;8.424;2023-04-03T08:26:49;495.38;;;462.25;;
22289;SDS011;11313;50.116;8.424;2023-04-03T08:29:15;1712.57;;;880.72;;
22289;SDS011;11313;50.116;8.424;2023-04-03T08:31:40;1999.90;;;999.90;;
22289;SDS011;11313;50.116;8.424;2023-04-03T08:34:06;1999.90;;;999.90;;
22289;SDS011;11313;50.116;8.424;2023-04-03T08:36:31;1999.90;;;953.00;;
22289;SDS011;11313;50.116;8.424;2023-04-03T08:38:57;1719.70;;;999.90;;
22289;SDS011;11313;50.116;8.424;2023-04-03T08:41:33;1870.07;;;999.90;;
22289;SDS011;11313;50.116;8.424;2023-04-03T08:46:52;1796.15;;;999.90;;
22289;SDS011;11313;50.116;8.424;2023-04-03T08:49:31;1771.20;;;999.90;;
22289;SDS011;11313;50.116;8.424;2023-04-03T08:55:25;1245.55;;;960.10;;
22289;SDS011;11313;50.116;8.424;2023-04-03T08:58:05;1273.15;;;961.95;;
22289;SDS011;11313;50.116;8.424;2023-04-03T09:00:39;1351.18;;;970.05;;
22289;SDS011;11313;50.116;8.424;2023-04-03T09:03:18;1085.63;;;913.55;;
22289;SDS011;11313;50.116;8.424;2023-04-03T09:10:45;1036.32;;;894.72;;
22289;SDS011;11313;50.116;8.424;2023-04-03T09:13:13;965.13;;;860.53;;
22289;SDS011;11313;50.116;8.424;2023-04-03T09:16:14;1088.20;;;932.22;;
22289;SDS011;11313;50.116;8.424;2023-04-03T09:18:53;1092.82;;;915.92;;
22289;SDS011;11313;50.116;8.424;2023-04-03T09:21:39;1260.72;;;949.90;;
22289;SDS011;11313;50.116;8.424;2023-04-03T09:26:45;979.33;;;872.58;;
22289;SDS011;11313;50.116;8.424;2023-04-03T09:29:24;1246.28;;;960.88;;
22289;SDS011;11313;50.116;8.424;2023-04-03T09:31:52;981.83;;;875.92;;
22289;SDS011;11313;50.116;8.424;2023-04-03T09:34:23;904.15;;;816.42;;
22289;SDS011;11313;50.116;8.424;2023-04-03T09:36:55;1155.55;;;929.50;;
22289;SDS011;11313;50.116;8.424;2023-04-03T09:39:24;950.13;;;844.55;;
22289;SDS011;11313;50.116;8.424;2023-04-03T09:41:56;1068.75;;;897.28;;
22289;SDS011;11313;50.116;8.424;2023-04-03T09:44:24;1125.50;;;910.17;;
22289;SDS011;11313;50.116;8.424;2023-04-03T09:46:51;1069.22;;;881.33;;
22289;SDS011;11313;50.116;8.424;2023-04-03T09:49:17;913.65;;;806.22;;
22289;SDS011;11313;50.116;8.424;2023-04-03T09:51:44;1124.65;;;929.58;;
22289;SDS011;11313;50.116;8.424;2023-04-03T09:54:30;1349.55;;;950.88;;
22289;SDS011;11313;50.116;8.424;2023-04-03T09:57:07;1311.22;;;934.53;;
22289;SDS011;11313;50.116;8.424;2023-04-03T09:59:36;1146.68;;;937.25;;
22289;SDS011;11313;50.116;8.424;2023-04-03T10:04:49;1632.75;;;955.38;;
22289;SDS011;11313;50.116;8.424;2023-04-03T10:07:34;962.03;;;858.35;;
22289;SDS011;11313;50.116;8.424;2023-04-03T10:12:39;1265.30;;;912.47;;
22289;SDS011;11313;50.116;8.424;2023-04-03T10:15:10;1158.68;;;884.83;;
22289;SDS011;11313;50.116;8.424;2023-04-03T10:17:57;1010.55;;;870.88;;
22289;SDS011;11313;50.116;8.424;2023-04-03T10:23:05;696.45;;;633.90;;
22289;SDS011;11313;50.116;8.424;2023-04-03T10:31:48;573.45;;;525.55;;
22289;SDS011;11313;50.116;8.424;2023-04-03T10:34:29;541.13;;;497.00;;
22289;SDS011;11313;50.116;8.424;2023-04-03T10:40:21;810.15;;;734.88;;
22289;SDS011;11313;50.116;8.424;2023-04-03T10:42:58;599.20;;;550.45;;
22289;SDS011;11313;50.116;8.424;2023-04-03T10:48:30;606.75;;;557.85;;
22289;SDS011;11313;50.116;8.424;2023-04-03T10:51:22;609.67;;;559.88;;
22289;SDS011;11313;50.116;8.424;2023-04-03T10:54:59;801.95;;;727.75;;
22289;SDS011;11313;50.116;8.424;2023-04-03T10:57:23;793.67;;;718.22;;
22289;SDS011;11313;50.116;8.424;2023-04-03T10:59:53;861.85;;;770.50;;
22289;SDS011;11313;50.116;8.424;2023-04-03T11:02:27;709.72;;;643.67;;
22289;SDS011;11313;50.116;8.424;2023-04-03T11:05:07;878.35;;;785.40;;
22289;SDS011;11313;50.116;8.424;2023-04-03T11:08:27;820.58;;;742.75;;
22289;SDS011;11313;50.116;8.424;2023-04-03T11:11:05;1109.40;;;912.23;;
22289;SDS011;11313;50.116;8.424;2023-04-03T11:13:41;1020.55;;;899.83;;
22289;SDS011;11313;50.116;8.424;2023-04-03T11:16:30;983.13;;;877.70;;
22289;SDS011;11313;50.116;8.424;2023-04-03T11:19:11;1065.82;;;922.25;;
22289;SDS011;11313;50.116;8.424;2023-04-03T11:24:31;1184.63;;;960.72;;
22289;SDS011;11313;50.116;8.424;2023-04-03T11:26:59;1107.15;;;945.08;;
22289;SDS011;11313;50.116;8.424;2023-04-03T11:29:34;1221.65;;;945.05;;
22289;SDS011;11313;50.116;8.424;2023-04-03T11:35:02;895.53;;;800.95;;
22289;SDS011;11313;50.116;8.424;2023-04-03T11:37:41;1026.70;;;897.88;;
22289;SDS011;11313;50.116;8.424;2023-04-03T11:42:40;998.47;;;852.13;;
22289;SDS011;11313;50.116;8.424;2023-04-03T11:47:52;897.00;;;781.65;;
22289;SDS011;11313;50.116;8.424;2023-04-03T11:55:45;863.50;;;777.25;;
22289;SDS011;11313;50.116;8.424;2023-04-03T11:58:23;870.33;;;781.63;;
22289;SDS011;11313;50.116;8.424;2023-04-03T12:13:33;972.75;;;871.53;;
22289;SDS011;11313;50.116;8.424;2023-04-03T12:15:59;1025.95;;;918.10;;
22289;SDS011;11313;50.116;8.424;2023-04-03T12:21:10;1173.85;;;996.63;;
22289;SDS011;11313;50.116;8.424;2023-04-03T12:23:55;1339.30;;;999.90;;
22289;SDS011;11313;50.116;8.424;2023-04-03T12:29:24;1006.38;;;903.25;;
22289;SDS011;11313;50.116;8.424;2023-04-03T12:32:13;929.75;;;835.35;;
22289;SDS011;11313;50.116;8.424;2023-04-03T12:37:51;1034.22;;;924.08;;
22289;SDS011;11313;50.116;8.424;2023-04-03T12:43:54;1358.32;;;999.90;;
22289;SDS011;11313;50.116;8.424;2023-04-03T12:46:03;1457.20;;;999.90;;
22289;SDS011;11313;50.116;8.424;2023-04-03T12:49:12;1224.13;;;977.85;;
22289;SDS011;11313;50.116;8.424;2023-04-03T12:51:43;1379.53;;;999.90;;
22289;SDS011;11313;50.116;8.424;2023-04-03T12:54:26;1188.53;;;972.30;;
22289;SDS011;11313;50.116;8.424;2023-04-03T12:59:44;1256.78;;;974.30;;
22289;SDS011;11313;50.116;8.424;2023-04-03T13:02:19;1307.22;;;999.90;;
22289;SDS011;11313;50.116;8.424;2023-04-03T13:04:57;1298.45;;;999.90;;
22289;SDS011;11313;50.116;8.424;2023-04-03T13:07:25;1241.32;;;999.90;;
22289;SDS011;11313;50.116;8.424;2023-04-03T13:12:45;1312.55;;;999.58;;
22289;SDS011;11313;50.116;8.424;2023-04-03T13:15:40;1463.07;;;999.90;;
22289;SDS011;11313;50.116;8.424;2023-04-03T13:18:10;1316.95;;;997.53;;
22289;SDS011;11313;50.116;8.424;2023-04-03T13:20:47;1415.90;;;999.90;;
22289;SDS011;11313;50.116;8.424;2023-04-03T13:23:13;1347.18;;;999.90;;
22289;SDS011;11313;50.116;8.424;2023-04-03T13:25:45;1375.28;;;986.17;;
22289;SDS011;11313;50.116;8.424;2023-04-03T13:28:13;1375.00;;;999.90;;
22289;SDS011;11313;50.116;8.424;2023-04-03T13:31:03;1458.75;;;999.90;;
22289;SDS011;11313;50.116;8.424;2023-04-03T13:36:36;1618.32;;;999.90;;
22289;SDS011;11313;50.116;8.424;2023-04-03T13:41:48;1708.60;;;999.90;;
22289;SDS011;11313;50.116;8.424;2023-04-03T13:46:53;1529.82;;;999.90;;
22289;SDS011;11313;50.116;8.424;2023-04-03T13:49:22;1865.10;;;999.90;;
22289;SDS011;11313;50.116;8.424;2023-04-03T13:52:01;1959.30;;;999.90;;
22289;SDS011;11313;50.116;8.424;2023-04-03T13:54:47;1999.90;;;999.90;;
22289;SDS011;11313;50.116;8.424;2023-04-03T13:57:16;1605.78;;;999.90;;
22289;SDS011;11313;50.116;8.424;2023-04-03T13:59:41;1495.38;;;999.90;;
22289;SDS011;11313;50.116;8.424;2023-04-03T14:07:02;1999.90;;;999.90;;
22289;SDS011;11313;50.116;8.424;2023-04-03T14:09:28;1907.40;;;999.90;;
22289;SDS011;11313;50.116;8.424;2023-04-03T14:11:58;1999.90;;;999.90;;
22289;SDS011;11313;50.116;8.424;2023-04-03T14:14:31;1776.00;;;999.90;;
22289;SDS011;11313;50.116;8.424;2023-04-03T14:16:59;1999.90;;;999.90;;
22289;SDS011;11313;50.116;8.424;2023-04-03T14:19:34;1999.90;;;999.90;;
22289;SDS011;11313;50.116;8.424;2023-04-03T14:22:01;1999.90;;;999.90;;
22289;SDS011;11313;50.116;8.424;2023-04-03T14:24:47;1999.90;;;999.90;;
22289;SDS011;11313;50.116;8.424;2023-04-03T14:27:16;1614.00;;;999.90;;
22289;SDS011;11313;50.116;8.424;2023-04-03T14:29:47;1681.80;;;999.90;;
22289;SDS011;11313;50.116;8.424;2023-04-03T14:32:14;1999.90;;;999.90;;
22289;SDS011;11313;50.116;8.424;2023-04-03T14:34:42;1999.90;;;999.90;;
22289;SDS011;11313;50.116;8.424;2023-04-03T14:37:15;1999.90;;;999.90;;
22289;SDS011;11313;50.116;8.424;2023-04-03T14:39:43;1535.25;;;999.90;;
22289;SDS011;11313;50.116;8.424;2023-04-03T14:42:11;1427.18;;;999.90;;
22289;SDS011;11313;50.116;8.424;2023-04-03T14:44:38;1577.97;;;999.90;;
22289;SDS011;11313;50.116;8.424;2023-04-03T14:47:05;1564.22;;;999.90;;
22289;SDS011;11313;50.116;8.424;2023-04-03T14:49:30;1351.45;;;999.90;;
22289;SDS011;11313;50.116;8.424;2023-04-03T14:51:56;1445.43;;;999.90;;
22289;SDS011;11313;50.116;8.424;2023-04-03T14:54:22;1293.82;;;999.90;;
22289;SDS011;11313;50.116;8.424;2023-04-03T14:56:52;1389.15;;;999.90;;
22289;SDS011;11313;50.116;8.424;2023-04-03T14:59:19;1329.50;;;999.90;;
22289;SDS011;11313;50.116;8.424;2023-04-03T15:01:46;1355.35;;;999.90;;
22289;SDS011;11313;50.116;8.424;2023-04-03T15:04:16;1235.47;;;999.90;;
22289;SDS011;11313;50.116;8.424;2023-04-03T15:06:44;1230.22;;;999.90;;
22289;SDS011;11313;50.116;8.424;2023-04-03T15:09:31;1255.95;;;988.25;;
22289;SDS011;11313;50.116;8.424;2023-04-03T15:11:55;1123.97;;;984.85;;
22289;SDS011;11313;50.116;8.424;2023-04-03T15:14:21;1223.53;;;999.90;;
22289;SDS011;11313;50.116;8.424;2023-04-03T15:16:48;1297.75;;;999.90;;
22289;SDS011;11313;50.116;8.424;2023-04-03T15:19:14;1100.78;;;977.50;;
22289;SDS011;11313;50.116;8.424;2023-04-03T15:21:39;1326.40;;;966.97;;
22289;SDS011;11313;50.116;8.424;2023-04-03T15:24:05;1255.40;;;999.28;;
22289;SDS011;11313;50.116;8.424;2023-04-03T15:26:31;1097.60;;;959.63;;
22289;SDS011;11313;50.116;8.424;2023-04-03T15:28:57;1715.53;;;999.90;;
22289;SDS011;11313;50.116;8.424;2023-04-03T15:31:23;1110.65;;;972.80;;
22289;SDS011;11313;50.116;8.424;2023-04-03T15:33:48;1163.45;;;985.95;;
22289;SDS011;11313;50.116;8.424;2023-04-03T15:36:14;1221.47;;;959.13;;
22289;SDS011;11313;50.116;8.424;2023-04-03T15:38:40;1147.32;;;985.75;;
22289;SDS011;11313;50.116;8.424;2023-04-03T15:41:05;1312.18;;;999.90;;
22289;SDS011;11313;50.116;8.424;2023-04-03T15:43:31;1199.65;;;952.45;;
22289;SDS011;11313;50.116;8.424;2023-04-03T15:45:58;1152.40;;;944.40;;